KSKA

Fairchild AFB Airport

Spokane, Washington, USA
METAR KSKA 210458Z 07007KT 4SM FU SCT015 17/05 A3017 RMK AO2A FU SCT015 SLP210 T01680051 $
Observed Flight Rules
Aug-21 @ 04:58 UTC (9 hours ago) Marginal Visual Flight Rules
Wind Visibility Clouds Conditions
70° at 7 knots 4 miles
  • Scattered at 1,500' AGL
  • Smoke
Temperatures Readings
Current 17°C / 63°F
Dewpoint 5°C / 41°F
Humidity 45%
Altimeter 30.17" Hg
Pressure 1021 hPa
Elevation 750
METAR KSKA 210458Z 07007KT 4SM FU SCT015 17/05 A3017 RMK AO2A FU SCT015 SLP210 T01680051 $
Observed Flight Rules
Aug-21 @ 04:58 UTC
(9 hours ago)
MVFR
Wind Visibility
70° at 7 knots 4 miles
Clouds
  • Scattered at 1,500' AGL
Conditions
  • Smoke
Temperature Dewpoint
17°C / 63°F 5°C / 41°F
Humidity Altimeter Pressure
45% 30.17" Hg 1021 hPa